Startpagina
METAR-TAF:

METAR-TAF

Vliegvelden :

Curaçao, Nederlandse Antillen

Curaçao International Airport

breedte: 12-12N, lengte: 068-58W, hoogte: 9 m

Actueel weer

Dit bericht is 20 minuten geleden gemaakt, om 12:00 UTC
Wind 16 kt uit het oostzuidoosten
Temperatuur 30°C
Vochtigheid 70%
Druk 1011 hPa
Zicht 10 km of meer
Weinig wolken op 1900 ft

METAR: TNCC 211200Z 11016KT 9999 FEW019 30/24 Q1011 NOSIG

Tijdstip: 08:20 (12:20 UTC)

Verwachting

Dit bericht is 2 uur en het 20 minuten geleden gemaakt, om 10:00 UTC
Verwachting geldig van 21 om 12 UTC tot 22 om 12 UTC
Wind 15 kt uit het oosten met uitschieters tot 26 kt
Zicht 10 km of meer
Verspreide wolken op 1800 ft
Kans 30% :
Tijdelijke
van 21 om 12 UTC tot 21 om 16 UTC
Gebroken wolken op 1500 ft

TAF: TNCC 211000Z 2112/2212 10015G26KT 9999 SCT018 PROB30 TEMPO 2112/2116 BKN015

Waarnemingen en weersverwachtingen van meer dan 4000 vliegvelden (METAR en TAF).

De beschikbare stations zijn de gele en rode punten op de kaart.

Ga met uw muis naar het station om de naam te zien.

Klik dan om waarnemingen en weersverwachtingen te zien.

kaart wijzigen: klik op de groene knoppen met een zwart kruis om in te zoomen, op de groene knop met een streepje om uit te zoomen of op de groene pijlen voor aangrenzende kaarten.


METAR-TAF: